Union Mills, Washington
Current Conditions -  °F | °C
As of 6:54 PM on Monday 20 Oct 2014 (Local Time) from KOLM Reporting Station
Scattered Clouds Scattered Clouds  
Wind Chill: 55°   Ceiling: Unl
Heat Index: 55°   Visibility: 10mi
Dew Point: 52°   Wind: 5mph
Humidity: 89%   Direction: 160°SSE
Pressure: 29.77"   Gusts: NA
Location:  46.9755°N, 122.872°W
Report Text: KOLM 210154Z 16004KT 10SM FEW040 SCT048 SCT060 13/11 A2977 RMK AO2 SLP081 T01280111
Loading
Personal Weather Stations






























Interactive Weather Map
Tropical Storm Tracking
New forecast layout! Learn more

10-Day Weather Forecast

Advertisements
Track Severe Weather on mobile